Time;durP1;ratioP1;P1;durP2;ratioP2;P2;SDS_P1;SDS_P2;PMS_P1;PMS_P2;Temp;Humidity;BMP_temperature;BMP_pressure;BME280_temperature;BME280_humidity;BME280_pressure;Samples;Min_cycle;Max_cycle;Signal;HPM_P1;HPM_P2
2020/12/19 06:02:22;;;;;;;;;;;;;;;;;;5082084;28;20415;-61
2020/12/19 06:04:48;;;;;;;16.13;3.15;;;;;;;;;;5072890;28;20025;-61
2020/12/19 06:07:14;;;;;;;13.63;1.83;;;;;;;;;;5080657;28;20103;-62
2020/12/19 06:09:42;;;;;;;13.57;1.98;;;;;;;;;;5078335;28;20171;-61
2020/12/19 06:12:14;;;;;;;7.63;1.90;;;;;;;;;;5068856;28;20141;-62
2020/12/19 06:14:41;;;;;;;13.43;2.20;;;;;;;;;;5084743;28;20531;-62
2020/12/19 06:17:17;;;;;;;19.23;2.10;;;;;;;;;;5070197;28;20021;-62
2020/12/19 06:19:47;;;;;;;13.35;2.00;;;;;;;;;;5072631;28;20110;-62
2020/12/19 06:22:13;;;;;;;15.00;2.38;;;;;;;;;;5084680;28;20015;-62
2020/12/19 06:24:40;;;;;;;20.55;2.80;;;;;;;;;;5092712;28;20492;-61
2020/12/19 06:27:12;;;;;;;21.25;3.15;;;;;;;;;;5097062;28;20035;-61
2020/12/19 06:29:38;;;;;;;16.20;2.00;;;;;;;;;;5095855;28;20487;-62
2020/12/19 06:32:05;;;;;;;22.67;2.55;;;;;;;;;;5095297;28;20059;-62
2020/12/19 06:34:32;;;;;;;23.35;2.63;;;;;;;;;;5097156;28;20524;-61
2020/12/19 06:36:58;;;;;;;23.00;3.10;;;;;;;;;;5096202;28;20103;-61
2020/12/19 06:39:24;;;;;;;25.70;3.30;;;;;;;;;;5081701;28;20063;-62
2020/12/19 06:41:55;;;;;;;18.58;2.67;;;;;;;;;;5071505;28;20111;-62
2020/12/19 06:44:27;;;;;;;19.13;3.15;;;;;;;;;;5068335;28;20066;-61
2020/12/19 06:46:54;;;;;;;19.52;3.90;;;;;;;;;;5083830;28;20039;-61
2020/12/19 06:49:26;;;;;;;23.02;2.75;;;;;;;;;;5081453;28;20093;-60
2020/12/19 06:51:59;;;;;;;23.27;3.30;;;;;;;;;;5075375;28;20094;-62
2020/12/19 06:54:36;;;;;;;27.77;2.80;;;;;;;;;;5072150;28;20020;-61
2020/12/19 06:57:03;;;;;;;24.77;3.25;;;;;;;;;;5072017;28;20064;-61
2020/12/19 06:59:30;;;;;;;17.17;2.35;;;;;;;;;;5068162;28;20024;-61
2020/12/19 07:02:12;;;;;;;19.70;2.60;;;;;;;;;;5063149;28;20498;-61
2020/12/19 07:04:38;;;;;;;21.85;2.85;;;;;;;;;;5072243;28;20105;-61
2020/12/19 07:07:06;;;;;;;17.83;2.95;;;;;;;;;;5070230;28;20404;-62
2020/12/19 07:09:32;;;;;;;23.85;3.95;;;;;;;;;;5070359;28;20493;-62
2020/12/19 07:11:58;;;;;;;34.42;3.83;;;;;;;;;;5071515;28;20060;-61
2020/12/19 07:14:25;;;;;;;20.65;3.47;;;;;;;;;;5070242;28;20020;-62
2020/12/19 07:16:54;;;;;;;29.13;5.65;;;;;;;;;;5073438;28;20409;-63
2020/12/19 07:19:20;;;;;;;21.80;2.97;;;;;;;;;;5071204;28;20050;-61
2020/12/19 07:21:46;;;;;;;31.75;3.55;;;;;;;;;;5069307;28;20016;-60
2020/12/19 07:24:13;;;;;;;22.35;2.97;;;;;;;;;;5069434;28;20025;-62
2020/12/19 07:26:39;;;;;;;29.83;3.17;;;;;;;;;;5069895;28;20025;-62
2020/12/19 07:29:16;;;;;;;26.95;3.50;;;;;;;;;;5071709;28;20078;-62
2020/12/19 07:31:43;;;;;;;26.23;3.65;;;;;;;;;;5071802;28;20036;-61
2020/12/19 07:34:10;;;;;;;29.63;3.33;;;;;;;;;;5069310;28;20081;-62
2020/12/19 07:36:38;;;;;;;27.13;3.85;;;;;;;;;;5069418;28;20078;-61
2020/12/19 07:39:05;;;;;;;26.70;2.85;;;;;;;;;;5069028;28;20052;-61
2020/12/19 07:41:31;;;;;;;21.92;2.75;;;;;;;;;;5069425;28;20024;-62
2020/12/19 07:44:07;;;;;;;28.20;4.15;;;;;;;;;;5072469;28;20044;-61
2020/12/19 07:46:34;;;;;;;30.77;3.50;;;;;;;;;;5070936;28;20081;-62
2020/12/19 07:49:00;;;;;;;31.20;4.00;;;;;;;;;;5069267;28;20722;-62
2020/12/19 07:51:26;;;;;;;29.10;3.80;;;;;;;;;;5068956;28;20044;-62
2020/12/19 07:53:52;;;;;;;26.42;4.28;;;;;;;;;;5069423;28;20485;-62
2020/12/19 07:56:19;;;;;;;36.13;4.00;;;;;;;;;;5070284;28;20059;-62
2020/12/19 07:58:47;;;;;;;22.50;3.17;;;;;;;;;;5057456;28;20547;-62
2020/12/19 08:01:13;;;;;;;26.48;3.88;;;;;;;;;;5067483;28;20098;-62
2020/12/19 08:03:39;;;;;;;24.90;4.03;;;;;;;;;;5067755;28;20025;-61
2020/12/19 08:06:05;;;;;;;20.98;2.90;;;;;;;;;;5068524;28;20066;-62
2020/12/19 08:08:31;;;;;;;24.23;3.45;;;;;;;;;;5068534;28;20025;-61
2020/12/19 08:11:01;;;;;;;22.23;3.47;;;;;;;;;;5071242;28;20040;-60
2020/12/19 08:13:28;;;;;;;33.75;4.50;;;;;;;;;;5070277;28;20155;-62
2020/12/19 08:15:58;;;;;;;30.98;3.80;;;;;;;;;;5068307;28;20025;-62
2020/12/19 08:18:24;;;;;;;30.40;3.47;;;;;;;;;;5068209;28;20021;-61
2020/12/19 08:20:52;;;;;;;29.67;3.30;;;;;;;;;;5068272;28;20439;-61
2020/12/19 08:23:20;;;;;;;30.10;3.58;;;;;;;;;;5068828;28;20035;-61
2020/12/19 08:25:50;;;;;;;35.47;4.82;;;;;;;;;;5071348;28;20020;-61
2020/12/19 08:28:21;;;;;;;24.67;4.18;;;;;;;;;;5068376;28;20085;-61
2020/12/19 08:30:47;;;;;;;35.63;4.75;;;;;;;;;;5067942;28;20055;-61
2020/12/19 08:33:13;;;;;;;35.78;4.35;;;;;;;;;;5067734;28;20366;-61
2020/12/19 08:35:43;;;;;;;26.73;4.18;;;;;;;;;;5068167;28;20025;-71
2020/12/19 08:38:10;;;;;;;34.60;3.95;;;;;;;;;;5069661;28;20028;-71
2020/12/19 08:40:39;;;;;;;34.95;4.97;;;;;;;;;;5070095;28;20033;-66
2020/12/19 08:43:06;;;;;;;38.08;4.53;;;;;;;;;;5067641;28;20056;-63
2020/12/19 08:45:33;;;;;;;30.02;4.25;;;;;;;;;;5067606;28;20025;-62
2020/12/19 08:48:01;;;;;;;30.92;4.25;;;;;;;;;;5067114;28;20020;-63
2020/12/19 08:50:29;;;;;;;28.15;5.55;;;;;;;;;;5067578;28;20036;-62
2020/12/19 08:53:02;;;;;;;30.13;3.92;;;;;;;;;;5070582;28;20386;-62
2020/12/19 08:55:28;;;;;;;41.28;5.60;;;;;;;;;;5068628;28;20030;-62
2020/12/19 08:57:54;;;;;;;31.20;4.20;;;;;;;;;;5067398;28;20029;-62
2020/12/19 09:00:20;;;;;;;41.47;5.68;;;;;;;;;;5067688;28;20451;-62
2020/12/19 09:02:47;;;;;;;26.60;3.85;;;;;;;;;;5068149;28;20496;-63
2020/12/19 09:05:13;;;;;;;27.05;4.07;;;;;;;;;;5069105;28;20033;-62
2020/12/19 09:07:39;;;;;;;32.33;5.22;;;;;;;;;;5069689;28;20035;-62
2020/12/19 09:10:23;;;;;;;24.60;4.45;;;;;;;;;;5066888;28;20450;-63
2020/12/19 09:13:05;;;;;;;32.88;4.65;;;;;;;;;;5067155;28;20054;-62
2020/12/19 09:15:32;;;;;;;35.15;4.53;;;;;;;;;;5066744;28;20107;-62
2020/12/19 09:17:58;;;;;;;28.40;4.00;;;;;;;;;;5067673;28;20024;-63
2020/12/19 09:20:25;;;;;;;38.22;4.70;;;;;;;;;;5068759;28;20386;-64
2020/12/19 09:22:52;;;;;;;23.50;3.85;;;;;;;;;;5069669;28;20035;-63
2020/12/19 09:25:18;;;;;;;29.65;4.07;;;;;;;;;;5067093;28;20111;-62
2020/12/19 09:27:44;;;;;;;32.22;5.75;;;;;;;;;;5067247;28;20025;-63
2020/12/19 09:30:10;;;;;;;36.22;4.50;;;;;;;;;;5066694;28;20036;-62
2020/12/19 09:32:36;;;;;;;30.50;4.00;;;;;;;;;;5067266;28;20425;-62
2020/12/19 09:35:02;;;;;;;32.47;4.13;;;;;;;;;;5067833;28;20473;-63
2020/12/19 09:37:29;;;;;;;23.92;3.80;;;;;;;;;;5068683;28;20028;-63
2020/12/19 09:39:55;;;;;;;30.95;3.78;;;;;;;;;;5069309;28;20458;-63
2020/12/19 09:42:21;;;;;;;28.85;5.20;;;;;;;;;;5064235;28;20070;-62
2020/12/19 09:44:47;;;;;;;39.28;4.53;;;;;;;;;;5057098;28;20401;-63
2020/12/19 09:47:13;;;;;;;36.60;4.45;;;;;;;;;;5069248;28;20107;-64
2020/12/19 09:49:39;;;;;;;33.15;5.72;;;;;;;;;;5069773;28;20123;-62
2020/12/19 09:52:05;;;;;;;31.02;5.38;;;;;;;;;;5066268;28;20043;-63
2020/12/19 09:54:31;;;;;;;23.63;3.50;;;;;;;;;;5068099;28;20029;-64
2020/12/19 09:56:58;;;;;;;28.55;3.88;;;;;;;;;;5065630;28;20031;-62
2020/12/19 09:59:24;;;;;;;28.45;5.45;;;;;;;;;;5066349;28;20501;-62
2020/12/19 10:01:50;;;;;;;30.58;3.85;;;;;;;;;;5067682;28;20124;-64
2020/12/19 10:04:16;;;;;;;27.02;4.13;;;;;;;;;;5064726;28;20092;-62
2020/12/19 10:06:42;;;;;;;26.25;3.35;;;;;;;;;;5061471;28;20035;-64
2020/12/19 10:09:08;;;;;;;22.67;3.60;;;;;;;;;;5056170;28;20017;-62
2020/12/19 10:11:34;;;;;;;22.23;4.18;;;;;;;;;;5053226;28;20490;-63
2020/12/19 10:14:01;;;;;;;31.90;4.30;;;;;;;;;;5064472;28;20553;-62
2020/12/19 10:16:27;;;;;;;24.58;3.33;;;;;;;;;;5064782;28;20031;-63
2020/12/19 10:18:53;;;;;;;29.33;4.28;;;;;;;;;;5061637;28;20024;-63
2020/12/19 10:21:19;;;;;;;28.23;4.68;;;;;;;;;;5061174;28;20104;-64
2020/12/19 10:23:45;;;;;;;28.92;4.43;;;;;;;;;;5061769;28;20028;-63
2020/12/19 10:26:11;;;;;;;29.05;4.68;;;;;;;;;;5062629;28;20104;-64
2020/12/19 10:28:38;;;;;;;29.65;4.30;;;;;;;;;;5064455;28;20056;-63
2020/12/19 10:31:04;;;;;;;35.58;4.38;;;;;;;;;;5060654;28;20032;-62
2020/12/19 10:33:30;;;;;;;32.97;4.80;;;;;;;;;;5057461;28;20052;-62
2020/12/19 10:35:56;;;;;;;29.80;4.25;;;;;;;;;;5054660;28;20116;-63
2020/12/19 10:38:22;;;;;;;42.42;5.15;;;;;;;;;;5053341;28;20565;-65
2020/12/19 10:40:48;;;;;;;44.05;6.03;;;;;;;;;;5053996;28;20501;-66
2020/12/19 10:43:14;;;;;;;34.78;5.43;;;;;;;;;;5054040;28;20079;-64
2020/12/19 10:45:41;;;;;;;52.38;5.53;;;;;;;;;;5054164;28;20048;-65
2020/12/19 10:48:07;;;;;;;48.88;6.15;;;;;;;;;;5054050;28;20029;-65
2020/12/19 10:50:33;;;;;;;39.05;5.50;;;;;;;;;;5059125;28;20029;-65
2020/12/19 10:52:59;;;;;;;39.33;6.22;;;;;;;;;;5059444;28;20025;-62
2020/12/19 10:55:25;;;;;;;38.67;4.95;;;;;;;;;;5056297;28;20737;-65
2020/12/19 10:57:51;;;;;;;35.33;5.25;;;;;;;;;;5054630;28;20036;-63
2020/12/19 11:00:17;;;;;;;28.60;5.35;;;;;;;;;;5053046;28;20067;-63
2020/12/19 11:02:45;;;;;;;31.50;5.25;;;;;;;;;;5061720;28;20021;-64
2020/12/19 11:05:11;;;;;;;34.90;4.15;;;;;;;;;;5062263;28;20195;-63
2020/12/19 11:07:37;;;;;;;21.83;3.60;;;;;;;;;;5058271;28;20036;-63
2020/12/19 11:10:04;;;;;;;23.73;4.05;;;;;;;;;;5057961;28;20086;-63
2020/12/19 11:12:30;;;;;;;18.60;3.20;;;;;;;;;;5062266;28;20486;-63
2020/12/19 11:14:56;;;;;;;20.77;3.00;;;;;;;;;;5071291;28;20029;-64
2020/12/19 11:17:25;;;;;;;20.80;3.00;;;;;;;;;;5054415;28;20389;-63
2020/12/19 11:19:51;;;;;;;21.80;2.78;;;;;;;;;;5072210;28;20138;-63
2020/12/19 11:22:17;;;;;;;17.25;2.97;;;;;;;;;;5059666;28;20033;-63
2020/12/19 11:24:43;;;;;;;23.63;3.25;;;;;;;;;;5061312;28;20052;-64
2020/12/19 11:27:09;;;;;;;25.90;3.55;;;;;;;;;;5068993;28;20035;-63
2020/12/19 11:29:35;;;;;;;21.02;3.35;;;;;;;;;;5069212;28;20020;-62
2020/12/19 11:32:04;;;;;;;27.98;4.20;;;;;;;;;;5071412;28;20036;-61
2020/12/19 11:34:31;;;;;;;22.05;4.63;;;;;;;;;;5071094;28;20035;-64
2020/12/19 11:36:57;;;;;;;32.33;5.22;;;;;;;;;;5069255;28;20020;-63
2020/12/19 11:39:23;;;;;;;25.13;3.97;;;;;;;;;;5069550;28;20397;-64
2020/12/19 11:41:49;;;;;;;32.47;5.15;;;;;;;;;;5069275;28;20033;-65
2020/12/19 11:44:15;;;;;;;38.45;5.25;;;;;;;;;;5071055;28;20028;-63
2020/12/19 11:46:42;;;;;;;36.60;4.82;;;;;;;;;;5069756;28;20529;-63
2020/12/19 11:49:08;;;;;;;30.38;5.82;;;;;;;;;;5069215;28;20099;-63
2020/12/19 11:51:34;;;;;;;35.20;6.85;;;;;;;;;;5068986;28;20037;-63
2020/12/19 11:54:01;;;;;;;35.25;4.93;;;;;;;;;;5068953;28;20020;-62
2020/12/19 11:56:29;;;;;;;38.42;6.10;;;;;;;;;;5068871;28;20511;-63
2020/12/19 11:58:55;;;;;;;38.33;6.35;;;;;;;;;;5071273;28;20036;-64
2020/12/19 12:01:26;;;;;;;37.05;5.80;;;;;;;;;;5070439;28;20045;-63
2020/12/19 12:03:52;;;;;;;35.38;6.53;;;;;;;;;;5068628;28;20024;-63
2020/12/19 12:06:18;;;;;;;48.28;6.88;;;;;;;;;;5068621;28;20033;-63
2020/12/19 12:08:44;;;;;;;35.65;6.20;;;;;;;;;;5070944;28;20672;-65
2020/12/19 12:11:10;;;;;;;37.83;4.97;;;;;;;;;;5069181;28;20029;-71
2020/12/19 12:13:36;;;;;;;33.55;5.65;;;;;;;;;;5071407;28;20099;-62
2020/12/19 12:16:07;;;;;;;38.13;5.50;;;;;;;;;;5068576;28;20052;-64
2020/12/19 12:18:33;;;;;;;35.03;6.18;;;;;;;;;;5068829;28;20021;-66
2020/12/19 12:20:59;;;;;;;44.70;6.60;;;;;;;;;;5068017;28;20060;-65
2020/12/19 12:23:25;;;;;;;38.75;6.22;;;;;;;;;;5072810;28;20033;-65
2020/12/19 12:25:51;;;;;;;35.75;5.85;;;;;;;;;;5077380;28;20120;-65
2020/12/19 12:28:17;;;;;;;34.95;5.30;;;;;;;;;;5077533;28;20108;-64
2020/12/19 12:30:43;;;;;;;34.13;5.70;;;;;;;;;;5076603;28;20032;-63
2020/12/19 12:33:09;;;;;;;33.08;6.07;;;;;;;;;;5076402;28;20028;-64
2020/12/19 12:35:35;;;;;;;26.90;4.53;;;;;;;;;;5068394;28;20052;-64
2020/12/19 12:38:01;;;;;;;29.13;5.05;;;;;;;;;;5070655;28;20024;-64
2020/12/19 12:40:27;;;;;;;33.80;5.35;;;;;;;;;;5070764;28;20396;-64
2020/12/19 12:42:55;;;;;;;29.95;5.35;;;;;;;;;;5067830;28;20021;-64
2020/12/19 12:45:21;;;;;;;28.33;4.95;;;;;;;;;;5068205;28;20021;-63
2020/12/19 12:47:47;;;;;;;35.95;5.40;;;;;;;;;;5068075;28;20020;-63
2020/12/19 12:50:13;;;;;;;34.50;5.97;;;;;;;;;;5070009;28;20501;-65
2020/12/19 12:52:39;;;;;;;32.95;4.70;;;;;;;;;;5068994;28;20035;-64
2020/12/19 12:55:05;;;;;;;28.67;4.70;;;;;;;;;;5067875;28;20054;-64
2020/12/19 12:57:31;;;;;;;36.10;5.20;;;;;;;;;;5067613;28;20020;-64
2020/12/19 12:59:57;;;;;;;32.70;5.07;;;;;;;;;;5066987;28;20036;-62
2020/12/19 13:02:24;;;;;;;32.20;5.80;;;;;;;;;;5051854;28;20016;-64
2020/12/19 13:04:50;;;;;;;37.55;5.35;;;;;;;;;;5070586;28;20032;-64
2020/12/19 13:07:17;;;;;;;35.92;4.90;;;;;;;;;;5067607;28;20024;-64
2020/12/19 13:09:44;;;;;;;32.25;5.15;;;;;;;;;;5066836;28;20025;-64
2020/12/19 13:12:10;;;;;;;35.03;5.03;;;;;;;;;;5067192;28;20048;-64
2020/12/19 13:14:36;;;;;;;33.47;5.60;;;;;;;;;;5067948;28;20509;-64
2020/12/19 13:17:03;;;;;;;45.45;5.82;;;;;;;;;;5069927;28;20119;-64
2020/12/19 13:19:29;;;;;;;33.22;5.53;;;;;;;;;;5068883;28;20399;-63
2020/12/19 13:21:55;;;;;;;33.08;4.72;;;;;;;;;;5067026;28;20114;-64
2020/12/19 13:24:22;;;;;;;43.70;6.32;;;;;;;;;;5066605;28;20050;-62
2020/12/19 13:26:48;;;;;;;28.58;4.97;;;;;;;;;;5067471;28;20033;-64
2020/12/19 13:29:15;;;;;;;30.42;6.57;;;;;;;;;;5068846;28;20024;-64
2020/12/19 13:31:45;;;;;;;31.98;5.68;;;;;;;;;;5069537;28;20036;-63
2020/12/19 13:34:11;;;;;;;42.83;5.90;;;;;;;;;;5067242;28;20028;-64
2020/12/19 13:36:38;;;;;;;29.05;4.68;;;;;;;;;;5067188;28;20031;-64
2020/12/19 13:39:05;;;;;;;24.67;5.20;;;;;;;;;;5067239;28;20062;-64
2020/12/19 13:41:31;;;;;;;32.17;5.88;;;;;;;;;;5067031;28;20371;-64
2020/12/19 13:43:57;;;;;;;44.78;5.25;;;;;;;;;;5069744;28;20040;-63
2020/12/19 13:46:23;;;;;;;22.38;4.32;;;;;;;;;;5068295;28;20094;-64
2020/12/19 13:48:51;;;;;;;23.42;3.72;;;;;;;;;;5067298;28;20028;-64
2020/12/19 13:51:17;;;;;;;22.90;3.95;;;;;;;;;;5066596;28;20123;-64
2020/12/19 13:53:43;;;;;;;25.30;3.97;;;;;;;;;;5067425;28;20037;-64
2020/12/19 13:56:09;;;;;;;29.77;4.40;;;;;;;;;;5069212;28;20529;-64
2020/12/19 13:58:35;;;;;;;30.42;5.53;;;;;;;;;;5067917;28;20035;-64
2020/12/19 14:01:01;;;;;;;30.40;4.30;;;;;;;;;;5066544;28;20208;-64
2020/12/19 14:03:28;;;;;;;26.92;4.60;;;;;;;;;;5066784;28;20491;-64
2020/12/19 14:05:54;;;;;;;34.80;4.65;;;;;;;;;;5066790;28;20068;-64
2020/12/19 14:08:20;;;;;;;33.03;5.85;;;;;;;;;;5066940;28;20040;-64
2020/12/19 14:10:46;;;;;;;36.35;5.15;;;;;;;;;;5069440;28;20043;-64
2020/12/19 14:13:12;;;;;;;36.28;4.95;;;;;;;;;;5069606;28;20029;-64
2020/12/19 14:15:38;;;;;;;44.45;5.82;;;;;;;;;;5071343;28;20028;-64
2020/12/19 14:18:04;;;;;;;27.20;4.93;;;;;;;;;;5070927;28;20491;-64
2020/12/19 14:20:30;;;;;;;44.65;6.65;;;;;;;;;;5070709;28;20485;-63
2020/12/19 14:22:56;;;;;;;42.58;6.45;;;;;;;;;;5073862;28;20400;-66
2020/12/19 14:25:22;;;;;;;34.72;5.20;;;;;;;;;;5071055;28;20043;-64
2020/12/19 14:27:49;;;;;;;44.75;5.40;;;;;;;;;;5070935;28;20505;-64
2020/12/19 14:30:15;;;;;;;41.15;6.00;;;;;;;;;;5070635;28;20060;-65
2020/12/19 14:32:41;;;;;;;40.13;5.70;;;;;;;;;;5070625;28;20474;-64
2020/12/19 14:35:07;;;;;;;40.85;6.60;;;;;;;;;;5072041;28;20033;-64
2020/12/19 14:37:34;;;;;;;42.25;6.03;;;;;;;;;;5071942;28;20489;-64
2020/12/19 14:40:08;;;;;;;45.80;6.85;;;;;;;;;;5070360;28;20556;-64
2020/12/19 14:42:37;;;;;;;42.50;6.65;;;;;;;;;;5070200;28;20032;-64
2020/12/19 14:45:04;;;;;;;38.42;6.55;;;;;;;;;;5070007;28;20478;-64
2020/12/19 14:47:30;;;;;;;33.35;6.07;;;;;;;;;;5070396;28;20045;-64
2020/12/19 14:49:58;;;;;;;40.53;5.88;;;;;;;;;;5073301;28;20072;-63
2020/12/19 14:52:24;;;;;;;37.35;7.28;;;;;;;;;;5071099;28;20047;-64
2020/12/19 14:54:51;;;;;;;41.20;4.75;;;;;;;;;;5070211;28;20031;-64
2020/12/19 14:57:17;;;;;;;35.25;4.63;;;;;;;;;;5070341;28;20040;-64
2020/12/19 14:59:43;;;;;;;35.78;6.00;;;;;;;;;;5070129;28;20482;-64
2020/12/19 15:02:09;;;;;;;38.15;5.35;;;;;;;;;;5072100;28;20048;-64
2020/12/19 15:04:35;;;;;;;38.80;5.97;;;;;;;;;;5070699;28;20526;-64
2020/12/19 15:07:01;;;;;;;35.78;5.97;;;;;;;;;;5069927;28;20456;-65
2020/12/19 15:09:27;;;;;;;38.97;6.22;;;;;;;;;;5070178;28;20036;-64
2020/12/19 15:11:53;;;;;;;36.30;5.13;;;;;;;;;;5069653;28;20036;-64
2020/12/19 15:14:20;;;;;;;38.85;5.00;;;;;;;;;;5071310;28;20032;-64
2020/12/19 15:16:46;;;;;;;35.03;5.63;;;;;;;;;;5072650;28;20055;-64
2020/12/19 15:19:13;;;;;;;32.05;4.85;;;;;;;;;;5068919;28;20029;-64
2020/12/19 15:21:39;;;;;;;37.75;6.55;;;;;;;;;;5070325;28;20037;-64
2020/12/19 15:24:05;;;;;;;38.80;7.18;;;;;;;;;;5070241;28;20047;-64
2020/12/19 15:26:31;;;;;;;35.17;5.25;;;;;;;;;;5069673;28;20462;-64
2020/12/19 15:28:58;;;;;;;31.70;5.20;;;;;;;;;;5072843;28;20043;-64
2020/12/19 15:31:24;;;;;;;31.75;4.32;;;;;;;;;;5070409;28;20040;-65
2020/12/19 15:33:51;;;;;;;22.85;4.85;;;;;;;;;;5069791;28;20032;-64
2020/12/19 15:36:17;;;;;;;29.65;3.60;;;;;;;;;;5069730;28;20020;-64
2020/12/19 15:38:43;;;;;;;35.47;4.53;;;;;;;;;;5069579;28;20013;-63
2020/12/19 15:41:15;;;;;;;21.80;4.13;;;;;;;;;;5072044;28;20024;-65
2020/12/19 15:43:41;;;;;;;22.52;4.00;;;;;;;;;;5071884;28;20540;-64
2020/12/19 15:46:11;;;;;;;24.65;3.75;;;;;;;;;;5070914;28;20116;-65
2020/12/19 15:48:37;;;;;;;28.65;4.40;;;;;;;;;;5069319;28;20020;-65
2020/12/19 15:51:04;;;;;;;37.67;5.32;;;;;;;;;;5069136;28;20524;-65
2020/12/19 15:53:33;;;;;;;34.88;4.53;;;;;;;;;;5069584;28;20482;-64
2020/12/19 15:55:59;;;;;;;30.02;3.58;;;;;;;;;;5072366;28;20029;-63
2020/12/19 15:58:26;;;;;;;34.88;5.97;;;;;;;;;;5075075;28;20035;-64
2020/12/19 16:00:52;;;;;;;21.33;3.45;;;;;;;;;;5073373;28;20051;-64
2020/12/19 16:03:18;;;;;;;23.08;4.05;;;;;;;;;;5069981;28;20122;-74
2020/12/19 16:05:44;;;;;;;30.98;4.57;;;;;;;;;;5059034;28;20021;-74
2020/12/19 16:08:11;;;;;;;41.17;4.97;;;;;;;;;;5056548;28;20020;-74
2020/12/19 16:10:37;;;;;;;30.25;4.97;;;;;;;;;;5061504;28;20501;-70
2020/12/19 16:13:03;;;;;;;30.15;6.75;;;;;;;;;;5063624;28;20056;-74
2020/12/19 16:15:30;;;;;;;31.30;4.65;;;;;;;;;;5062396;28;20024;-73
2020/12/19 16:17:57;;;;;;;37.10;5.43;;;;;;;;;;5057306;28;20123;-72
2020/12/19 16:20:23;;;;;;;28.38;4.72;;;;;;;;;;5059428;28;20114;-74
2020/12/19 16:22:49;;;;;;;33.17;5.18;;;;;;;;;;5061246;28;20095;-75
2020/12/19 16:25:15;;;;;;;39.50;5.72;;;;;;;;;;5056813;28;20033;-75
2020/12/19 16:27:41;;;;;;;31.38;4.43;;;;;;;;;;5059468;28;20482;-74
2020/12/19 16:30:08;;;;;;;50.92;7.28;;;;;;;;;;5055905;28;20028;-74
2020/12/19 16:32:34;;;;;;;35.78;5.03;;;;;;;;;;5054964;28;20106;-70
2020/12/19 16:35:00;;;;;;;32.80;5.57;;;;;;;;;;5056250;28;20017;-75
2020/12/19 16:37:26;;;;;;;32.10;4.25;;;;;;;;;;5058982;28;20032;-74
2020/12/19 16:39:52;;;;;;;33.10;4.78;;;;;;;;;;5056547;28;20025;-74
2020/12/19 16:42:19;;;;;;;29.55;5.32;;;;;;;;;;5055672;28;20053;-74
2020/12/19 16:44:45;;;;;;;36.72;5.05;;;;;;;;;;5057017;28;20052;-74
2020/12/19 16:47:11;;;;;;;35.78;6.63;;;;;;;;;;5059545;28;20104;-69
2020/12/19 16:49:37;;;;;;;37.17;4.78;;;;;;;;;;5057643;28;20024;-73
2020/12/19 16:52:04;;;;;;;34.05;4.95;;;;;;;;;;5052180;28;20040;-74
2020/12/19 16:54:30;;;;;;;24.85;4.63;;;;;;;;;;5057371;28;20116;-73
2020/12/19 16:56:56;;;;;;;36.92;5.05;;;;;;;;;;5061514;28;20492;-71
2020/12/19 16:59:22;;;;;;;28.30;4.43;;;;;;;;;;5061658;28;20472;-73
2020/12/19 17:01:50;;;;;;;30.50;5.25;;;;;;;;;;5055649;28;20095;-75
2020/12/19 17:04:17;;;;;;;29.88;5.47;;;;;;;;;;5062516;28;20021;-63
2020/12/19 17:06:43;;;;;;;27.17;4.68;;;;;;;;;;5061230;28;20493;-64
2020/12/19 17:09:10;;;;;;;29.92;5.28;;;;;;;;;;5066014;28;20108;-64
2020/12/19 17:11:36;;;;;;;34.05;6.68;;;;;;;;;;5063820;28;20048;-64
2020/12/19 17:14:03;;;;;;;27.73;4.40;;;;;;;;;;5059297;28;20028;-67
2020/12/19 17:16:29;;;;;;;30.13;5.28;;;;;;;;;;5070398;28;20504;-63
2020/12/19 17:18:57;;;;;;;37.42;5.25;;;;;;;;;;5062570;28;20040;-60
2020/12/19 17:21:23;;;;;;;30.58;4.63;;;;;;;;;;5065077;28;20437;-59
2020/12/19 17:23:50;;;;;;;41.75;5.18;;;;;;;;;;5070319;28;20401;-68
2020/12/19 17:26:17;;;;;;;31.40;4.88;;;;;;;;;;5058750;28;20041;-60
2020/12/19 17:28:44;;;;;;;22.88;5.07;;;;;;;;;;5063283;28;20027;-60
2020/12/19 17:31:10;;;;;;;27.23;4.13;;;;;;;;;;5062919;28;20044;-58
2020/12/19 17:33:36;;;;;;;22.50;4.13;;;;;;;;;;5060144;28;20029;-58
2020/12/19 17:36:03;;;;;;;26.10;4.32;;;;;;;;;;5064612;28;20029;-59
2020/12/19 17:38:29;;;;;;;25.15;4.40;;;;;;;;;;5064694;28;20082;-58
2020/12/19 17:40:55;;;;;;;25.63;3.63;;;;;;;;;;5062608;28;20032;-61
2020/12/19 17:43:21;;;;;;;28.38;3.78;;;;;;;;;;5063253;28;20025;-60
2020/12/19 17:45:47;;;;;;;31.92;4.88;;;;;;;;;;5065872;28;20090;-62
2020/12/19 17:48:13;;;;;;;26.52;3.92;;;;;;;;;;5063419;28;20485;-65
2020/12/19 17:50:39;;;;;;;32.53;4.43;;;;;;;;;;5062833;28;20363;-64
2020/12/19 17:53:06;;;;;;;31.30;4.63;;;;;;;;;;5060810;28;20035;-59
2020/12/19 17:55:32;;;;;;;20.75;4.75;;;;;;;;;;5054767;28;20565;-56
2020/12/19 17:57:58;;;;;;;31.30;5.25;;;;;;;;;;5056996;28;20688;-58
2020/12/19 18:00:25;;;;;;;28.13;4.90;;;;;;;;;;5062075;28;20044;-58
2020/12/19 18:02:51;;;;;;;28.50;3.53;;;;;;;;;;5065331;28;20643;-58
2020/12/19 18:05:17;;;;;;;23.55;4.50;;;;;;;;;;5064948;28;20568;-59
2020/12/19 18:07:43;;;;;;;27.23;4.35;;;;;;;;;;5066972;28;20255;-58
2020/12/19 18:10:09;;;;;;;23.75;3.80;;;;;;;;;;5064288;28;20117;-59
2020/12/19 18:12:35;;;;;;;23.10;4.05;;;;;;;;;;5065905;28;20432;-57
2020/12/19 18:15:01;;;;;;;31.02;3.88;;;;;;;;;;5065901;28;20116;-60
2020/12/19 18:17:28;;;;;;;26.55;4.25;;;;;;;;;;5066337;28;20024;-59
2020/12/19 18:19:54;;;;;;;32.00;5.32;;;;;;;;;;5067439;28;20028;-60
2020/12/19 18:22:20;;;;;;;37.90;5.28;;;;;;;;;;5065387;28;20060;-59
2020/12/19 18:24:46;;;;;;;32.55;5.15;;;;;;;;;;5063481;28;20025;-59
2020/12/19 18:27:12;;;;;;;38.95;5.35;;;;;;;;;;5062989;28;20039;-60
2020/12/19 18:29:38;;;;;;;35.97;5.25;;;;;;;;;;5065586;28;20021;-59
2020/12/19 18:32:05;;;;;;;27.27;5.60;;;;;;;;;;5054354;28;20028;-59
2020/12/19 18:34:31;;;;;;;35.28;5.03;;;;;;;;;;5055440;28;20033;-57
2020/12/19 18:36:57;;;;;;;29.48;4.47;;;;;;;;;;5054267;28;20040;-59
2020/12/19 18:39:23;;;;;;;27.88;4.28;;;;;;;;;;5054929;28;20039;-59
2020/12/19 18:41:52;;;;;;;30.65;4.82;;;;;;;;;;5053322;28;20268;-60
2020/12/19 18:44:19;;;;;;;32.40;5.43;;;;;;;;;;5051412;28;20545;-60
2020/12/19 18:46:49;;;;;;;35.75;5.68;;;;;;;;;;5054507;28;20096;-59
2020/12/19 18:49:15;;;;;;;27.98;4.70;;;;;;;;;;5054546;28;20244;-59
2020/12/19 18:51:41;;;;;;;28.40;4.70;;;;;;;;;;5054632;28;20041;-59
2020/12/19 18:54:08;;;;;;;29.42;5.65;;;;;;;;;;5054565;28;20048;-59
2020/12/19 18:56:34;;;;;;;31.27;5.10;;;;;;;;;;5051575;28;20111;-58
2020/12/19 18:59:00;;;;;;;31.38;4.90;;;;;;;;;;5071325;28;20028;-56
2020/12/19 19:01:26;;;;;;;30.52;5.15;;;;;;;;;;5070310;28;20098;-59
2020/12/19 19:03:52;;;;;;;31.67;5.70;;;;;;;;;;5069641;28;20485;-60
2020/12/19 19:06:18;;;;;;;30.55;4.28;;;;;;;;;;5069744;28;20043;-59
2020/12/19 19:08:44;;;;;;;35.30;5.75;;;;;;;;;;5067558;28;20062;-59
2020/12/19 19:11:11;;;;;;;29.40;4.35;;;;;;;;;;5066867;28;20123;-59
2020/12/19 19:13:39;;;;;;;32.03;5.20;;;;;;;;;;5057276;28;20028;-57
2020/12/19 19:16:06;;;;;;;36.22;5.93;;;;;;;;;;5059573;28;20043;-59
2020/12/19 19:18:33;;;;;;;30.80;4.35;;;;;;;;;;5062020;28;20035;-59
2020/12/19 19:20:59;;;;;;;32.08;5.35;;;;;;;;;;5065090;28;20032;-59
2020/12/19 19:23:25;;;;;;;26.83;4.72;;;;;;;;;;5063557;28;20109;-59
2020/12/19 19:25:51;;;;;;;25.70;4.60;;;;;;;;;;5064005;28;20098;-59
2020/12/19 19:28:17;;;;;;;31.27;4.72;;;;;;;;;;5060336;28;20389;-58
2020/12/19 19:30:43;;;;;;;35.40;4.78;;;;;;;;;;5060213;28;20052;-58
2020/12/19 19:33:09;;;;;;;36.15;5.40;;;;;;;;;;5055512;28;20024;-59
2020/12/19 19:35:36;;;;;;;31.38;4.50;;;;;;;;;;5064129;28;20112;-58
2020/12/19 19:38:02;;;;;;;29.00;4.72;;;;;;;;;;5060137;28;20401;-58
2020/12/19 19:40:28;;;;;;;30.10;4.32;;;;;;;;;;5066136;28;20036;-59
2020/12/19 19:42:54;;;;;;;32.03;4.43;;;;;;;;;;5061801;28;20113;-58
2020/12/19 19:45:21;;;;;;;31.15;4.80;;;;;;;;;;5063657;28;20368;-58
2020/12/19 19:47:47;;;;;;;29.08;4.50;;;;;;;;;;5054669;28;20032;-59
2020/12/19 19:50:13;;;;;;;23.38;3.13;;;;;;;;;;5065708;28;20498;-58
2020/12/19 19:52:39;;;;;;;24.45;3.38;;;;;;;;;;5062367;28;20028;-57
2020/12/19 19:55:06;;;;;;;24.95;4.88;;;;;;;;;;5064966;28;20036;-60
2020/12/19 19:57:33;;;;;;;22.52;2.97;;;;;;;;;;5062745;28;20256;-59
2020/12/19 19:59:59;;;;;;;18.58;4.35;;;;;;;;;;5065423;28;20027;-62
2020/12/19 20:02:25;;;;;;;20.95;3.25;;;;;;;;;;5060700;28;20542;-58
2020/12/19 20:04:52;;;;;;;27.55;8.98;;;;;;;;;;5062789;28;20044;-56
2020/12/19 20:07:19;;;;;;;19.23;7.72;;;;;;;;;;5054300;28;20497;-58
2020/12/19 20:09:45;;;;;;;26.00;8.48;;;;;;;;;;5058914;28;20021;-58
2020/12/19 20:12:12;;;;;;;23.27;4.93;;;;;;;;;;5062562;28;20045;-57
2020/12/19 20:14:38;;;;;;;18.95;3.30;;;;;;;;;;5058266;28;20032;-59
2020/12/19 20:17:04;;;;;;;23.92;5.20;;;;;;;;;;5060661;28;20052;-56
2020/12/19 20:19:30;;;;;;;20.35;4.28;;;;;;;;;;5063297;28;20684;-58
2020/12/19 20:21:56;;;;;;;25.05;5.78;;;;;;;;;;5061542;28;20111;-57
2020/12/19 20:24:22;;;;;;;15.38;4.90;;;;;;;;;;5054285;28;20061;-58
2020/12/19 20:26:49;;;;;;;26.20;6.72;;;;;;;;;;5062791;28;20051;-58
2020/12/19 20:29:16;;;;;;;22.88;3.22;;;;;;;;;;5061371;28;20059;-57